createdAt,value
2023-05-03T00:00:48.442Z,100541.38
2023-05-03T00:10:59.277Z,100544.03
2023-05-03T00:21:01.006Z,100538.78
2023-05-03T00:31:11.271Z,100527.63
2023-05-03T00:41:13.668Z,100527.66
2023-05-03T00:51:16.399Z,100509.63
2023-05-03T01:01:19.097Z,100545.31
2023-05-03T01:11:27.533Z,100547.03
2023-05-03T01:21:31.081Z,100550.50
2023-05-03T01:31:44.013Z,100561.63
2023-05-03T01:41:46.129Z,100560.00
2023-05-03T01:51:51.763Z,100557.41
2023-05-03T02:01:53.415Z,100550.56
2023-05-03T02:11:55.422Z,100540.28
2023-05-03T02:21:57.039Z,100531.63
2023-05-03T02:31:59.775Z,100540.31
2023-05-03T02:42:03.400Z,100536.00
2023-05-03T02:52:06.135Z,100517.81
2023-05-03T03:02:09.809Z,100515.13
2023-05-03T03:12:11.536Z,100522.25
2023-05-03T03:22:13.158Z,100517.03
2023-05-03T03:32:17.495Z,100518.78
2023-05-03T03:42:20.918Z,100523.91
2023-05-03T03:52:22.921Z,100534.13
2023-05-03T04:02:25.063Z,100531.66
2023-05-03T04:12:34.149Z,100544.44
2023-05-03T04:22:39.224Z,100546.84
2023-05-03T04:32:43.172Z,100551.06
2023-05-03T04:42:48.082Z,100559.50
2023-05-03T04:52:49.864Z,100562.72
2023-05-03T05:02:55.234Z,100574.78
2023-05-03T05:12:58.061Z,100573.31
2023-05-03T05:23:00.183Z,100565.34
2023-05-03T05:33:07.429Z,100571.06
2023-05-03T05:43:11.606Z,100588.06
2023-05-03T05:53:13.380Z,100609.78
2023-05-03T06:03:16.003Z,100626.25
2023-05-03T06:13:17.786Z,100637.69
2023-05-03T06:23:20.860Z,100652.47
2023-05-03T06:33:22.545Z,100666.31
2023-05-03T06:43:24.256Z,100676.81
2023-05-03T06:53:26.156Z,100679.38
2023-05-03T07:03:27.937Z,100676.66
2023-05-03T07:13:29.991Z,100663.81
2023-05-03T07:23:32.059Z,100666.66
2023-05-03T07:33:37.639Z,100667.09
2023-05-03T07:43:39.586Z,100677.97
2023-05-03T07:53:41.524Z,100683.66
2023-05-03T08:03:44.790Z,100675.53
2023-05-03T08:13:46.609Z,100686.84
2023-05-03T08:23:49.273Z,100689.97
2023-05-03T08:33:58.785Z,100686.59
2023-05-03T08:44:01.398Z,100689.59
2023-05-03T08:54:03.569Z,100699.44
2023-05-03T09:04:06.153Z,100701.06
2023-05-03T09:14:14.691Z,100697.94
2023-05-03T09:24:23.094Z,100693.22
2023-05-03T09:34:24.851Z,100694.09
2023-05-03T09:44:44.580Z,100699.38
2023-05-03T09:54:46.632Z,100705.03
2023-05-03T10:04:57.255Z,100700.97
2023-05-03T10:15:01.640Z,100700.00
2023-05-03T10:25:11.504Z,100691.66
2023-05-03T10:35:16.598Z,100686.41
2023-05-03T10:45:31.712Z,100673.56
2023-05-03T10:55:34.182Z,100669.50
2023-05-03T11:05:38.301Z,100668.31
2023-05-03T11:15:41.198Z,100669.63
2023-05-03T11:25:43.066Z,100671.94
2023-05-03T11:35:44.866Z,100668.31
2023-05-03T11:45:48.361Z,100667.53
2023-05-03T11:55:53.935Z,100660.47
2023-05-03T12:05:57.485Z,100657.50
2023-05-03T12:26:10.147Z,100647.63
2023-05-03T12:36:14.596Z,100649.47
2023-05-03T12:46:32.207Z,100635.19
2023-05-03T12:56:39.766Z,100631.44
2023-05-03T13:06:43.850Z,100626.06
2023-05-03T13:16:50.197Z,100631.19
2023-05-03T13:26:51.960Z,100622.66
2023-05-03T13:36:53.672Z,100603.41
2023-05-03T13:46:57.444Z,100610.91
2023-05-03T13:56:59.430Z,100614.31
2023-05-03T14:07:10.106Z,100597.16
2023-05-03T14:17:12.207Z,100587.44
2023-05-03T14:27:15.223Z,100587.25
2023-05-03T14:37:23.242Z,100589.56
2023-05-03T14:47:28.244Z,100583.69
2023-05-03T14:57:34.392Z,100597.69
2023-05-03T15:07:38.146Z,100597.13
2023-05-03T15:17:39.918Z,100596.06
2023-05-03T15:27:42.637Z,100603.00
2023-05-03T15:37:44.413Z,100609.09
2023-05-03T15:47:47.126Z,100612.19
2023-05-03T15:57:48.805Z,100603.78
2023-05-03T16:07:51.017Z,100604.00
2023-05-03T16:18:01.295Z,100601.91
2023-05-03T16:28:03.198Z,100603.69
2023-05-03T16:38:04.757Z,100608.44
2023-05-03T16:48:09.091Z,100604.41
2023-05-03T16:58:12.416Z,100597.50
2023-05-03T17:08:15.500Z,100607.72
2023-05-03T17:18:17.365Z,100610.81
2023-05-03T17:28:21.051Z,100615.47
2023-05-03T17:38:23.472Z,100620.88
2023-05-03T17:48:25.110Z,100632.34
2023-05-03T17:58:29.192Z,100629.31
2023-05-03T18:08:33.512Z,100636.72
2023-05-03T18:18:35.511Z,100646.56
2023-05-03T18:28:41.309Z,100648.41
2023-05-03T18:38:53.996Z,100660.81
2023-05-03T18:48:57.611Z,100670.56
2023-05-03T18:59:00.140Z,100686.34
2023-05-03T19:09:02.850Z,100693.41
2023-05-03T19:19:12.654Z,100699.06
2023-05-03T19:29:14.936Z,100715.09
2023-05-03T19:39:18.593Z,100715.09
2023-05-03T19:49:24.013Z,100731.50
2023-05-03T19:59:25.760Z,100732.44
2023-05-03T20:09:29.870Z,100740.38
2023-05-03T20:19:32.779Z,100751.56
2023-05-03T20:29:36.263Z,100760.25
2023-05-03T20:39:47.277Z,100765.38
2023-05-03T20:49:48.990Z,100766.13
2023-05-03T20:59:51.300Z,100773.25
2023-05-03T21:09:52.969Z,100772.41
2023-05-03T21:19:54.644Z,100775.16
2023-05-03T21:29:56.246Z,100780.44
2023-05-03T21:40:02.048Z,100764.19
2023-05-03T21:50:08.024Z,100769.56
2023-05-03T22:00:16.818Z,100774.13
2023-05-03T22:10:20.680Z,100771.50
2023-05-03T22:20:23.406Z,100767.19
2023-05-03T22:30:32.460Z,100769.09
2023-05-03T22:40:34.232Z,100758.88
2023-05-03T22:50:36.135Z,100751.31
2023-05-03T23:00:38.631Z,100741.00
2023-05-03T23:10:42.102Z,100734.00
2023-05-03T23:20:45.158Z,100725.44
2023-05-03T23:30:48.856Z,100719.41
2023-05-03T23:40:52.821Z,100722.03
2023-05-03T23:50:54.659Z,100710.28
